Time;durP1;ratioP1;P1;durP2;ratioP2;P2;SDS_P1;SDS_P2;PMS_P1;PMS_P2;Temp;Humidity;BMP_temperature;BMP_pressure;BME280_temperature;BME280_humidity;BME280_pressure;Samples;Min_cycle;Max_cycle;Signal;HPM_P1;HPM_P2
2021/01/01 00:01:43;;;;;;;45.35;27.45;;;3.80;99.90;;;;;;5052305;28;20292;-82
2021/01/01 00:04:10;;;;;;;40.38;27.55;;;3.80;99.90;;;;;;5051287;28;20248;-82
2021/01/01 00:06:37;;;;;;;56.30;34.30;;;3.70;99.90;;;;;;5052401;28;20236;-81
2021/01/01 00:09:04;;;;;;;54.53;32.88;;;3.70;99.90;;;;;;5051010;28;20206;-81
2021/01/01 00:11:30;;;;;;;52.38;32.17;;;3.70;99.90;;;;;;5052219;28;20206;-84
2021/01/01 00:13:56;;;;;;;47.10;31.65;;;3.70;99.90;;;;;;5052415;28;20252;-81
2021/01/01 00:16:23;;;;;;;57.38;34.00;;;3.70;99.90;;;;;;5052372;28;20355;-84
2021/01/01 00:18:49;;;;;;;54.50;35.50;;;3.70;99.90;;;;;;5051915;28;20205;-82
2021/01/01 00:21:16;;;;;;;54.65;35.90;;;3.80;99.90;;;;;;5052261;28;20209;-82
2021/01/01 00:23:42;;;;;;;51.95;36.03;;;3.80;99.90;;;;;;5051001;28;20210;-82
2021/01/01 00:26:14;;;;;;;59.15;36.97;;;3.90;99.90;;;;;;5051903;28;20284;-82
2021/01/01 00:28:42;;;;;;;54.17;34.28;;;3.90;99.90;;;;;;5052246;28;20579;-82
2021/01/01 00:31:13;;;;;;;60.78;35.85;;;4.00;99.90;;;;;;5052217;28;20291;-82
2021/01/01 00:33:39;;;;;;;55.03;33.80;;;4.00;99.90;;;;;;5051646;28;20293;-84
2021/01/01 00:36:06;;;;;;;68.32;36.67;;;4.00;99.90;;;;;;5052127;28;20293;-82
2021/01/01 00:38:33;;;;;;;58.22;33.97;;;4.00;99.90;;;;;;5050744;28;20737;-82
2021/01/01 00:40:59;;;;;;;48.33;32.13;;;4.00;99.90;;;;;;5052038;28;20289;-82
2021/01/01 00:43:26;;;;;;;50.30;31.70;;;3.90;99.90;;;;;;5052003;28;20202;-82
2021/01/01 00:45:52;;;;;;;38.17;26.75;;;3.90;99.90;;;;;;5051832;28;20248;-82
2021/01/01 00:48:19;;;;;;;38.38;24.95;;;4.00;99.90;;;;;;5052186;28;20552;-82
2021/01/01 00:50:45;;;;;;;33.10;24.48;;;4.00;99.90;;;;;;5051641;28;20213;-82
2021/01/01 00:53:11;;;;;;;37.65;23.80;;;4.10;99.90;;;;;;5052660;28;20579;-82
2021/01/01 00:55:39;;;;;;;39.22;23.73;;;4.10;99.90;;;;;;5055723;28;20210;-82
2021/01/01 00:58:05;;;;;;;28.10;19.00;;;4.00;99.90;;;;;;5054993;28;20729;-83
2021/01/01 01:00:31;;;;;;;36.83;21.00;;;4.00;99.90;;;;;;5055393;28;20234;-82
2021/01/01 01:02:58;;;;;;;18.00;11.73;;;3.90;99.90;;;;;;5055175;28;20199;-82
2021/01/01 01:05:24;;;;;;;20.42;14.60;;;3.90;99.90;;;;;;5055249;28;20217;-84
2021/01/01 01:07:50;;;;;;;23.60;15.93;;;3.90;99.90;;;;;;5054084;28;20202;-83
2021/01/01 01:10:17;;;;;;;24.33;15.10;;;4.00;99.90;;;;;;5055396;28;20288;-83
2021/01/01 01:12:44;;;;;;;24.10;15.93;;;3.90;99.90;;;;;;5055435;28;20253;-82
2021/01/01 01:15:11;;;;;;;22.70;15.75;;;3.80;99.90;;;;;;5055324;28;20244;-82
2021/01/01 01:17:40;;;;;;;24.27;17.23;;;3.80;99.90;;;;;;5055277;28;20203;-82
2021/01/01 01:20:08;;;;;;;20.73;14.50;;;3.80;99.90;;;;;;5055037;28;20275;-83
2021/01/01 01:22:34;;;;;;;29.38;16.67;;;3.80;99.90;;;;;;5053974;28;20247;-82
2021/01/01 01:25:00;;;;;;;20.63;15.38;;;3.90;99.90;;;;;;5055024;28;20308;-84
2021/01/01 01:27:27;;;;;;;25.58;18.15;;;3.90;99.90;;;;;;5055011;28;20236;-82
2021/01/01 01:29:54;;;;;;;28.05;16.60;;;3.90;99.90;;;;;;5054996;28;20297;-82
2021/01/01 01:32:20;;;;;;;25.83;16.23;;;3.90;99.90;;;;;;5054875;28;20206;-84
2021/01/01 01:34:47;;;;;;;22.55;16.65;;;3.90;99.90;;;;;;5053612;28;20198;-82
2021/01/01 01:37:13;;;;;;;24.35;14.77;;;3.90;99.90;;;;;;5053659;28;20963;-82
2021/01/01 01:39:39;;;;;;;29.20;21.45;;;3.90;99.90;;;;;;5054657;28;20202;-82
2021/01/01 01:42:06;;;;;;;37.70;25.58;;;3.90;99.90;;;;;;5054779;28;20212;-83
2021/01/01 01:44:32;;;;;;;51.00;28.13;;;3.90;99.90;;;;;;5054661;28;20234;-83
2021/01/01 01:47:00;;;;;;;49.75;31.10;;;3.90;99.90;;;;;;5054417;28;20233;-82
2021/01/01 01:49:27;;;;;;;54.13;30.75;;;3.80;99.90;;;;;;5054307;28;20729;-83
2021/01/01 01:51:54;;;;;;;55.83;31.30;;;3.80;99.90;;;;;;5053475;28;20240;-83
2021/01/01 01:54:20;;;;;;;51.53;33.55;;;3.70;99.90;;;;;;5054495;28;20202;-83
2021/01/01 01:56:47;;;;;;;55.47;33.38;;;3.70;99.90;;;;;;5054448;28;20596;-83
2021/01/01 01:59:16;;;;;;;54.65;30.85;;;3.70;99.90;;;;;;5054574;28;20289;-84
2021/01/01 02:01:42;;;;;;;51.88;32.45;;;3.90;99.90;;;;;;5054521;28;20205;-83
2021/01/01 02:04:10;;;;;;;54.28;33.75;;;3.90;99.90;;;;;;5052932;28;20670;-83
2021/01/01 02:06:36;;;;;;;45.40;30.80;;;3.80;99.90;;;;;;5054189;28;20226;-83
2021/01/01 02:09:03;;;;;;;54.65;32.30;;;3.80;99.90;;;;;;5053286;28;20646;-83
2021/01/01 02:11:32;;;;;;;49.30;30.90;;;3.80;99.90;;;;;;5054291;28;20573;-83
2021/01/01 02:14:00;;;;;;;50.15;31.77;;;3.80;99.90;;;;;;5054298;28;20202;-83
2021/01/01 02:16:27;;;;;;;46.60;30.00;;;3.80;99.90;;;;;;5054256;28;20206;-83
2021/01/01 02:18:53;;;;;;;42.03;28.63;;;3.80;99.90;;;;;;5054142;28;20205;-83
2021/01/01 02:21:21;;;;;;;53.63;30.10;;;3.80;99.90;;;;;;5054300;28;20212;-83
2021/01/01 02:23:49;;;;;;;48.80;29.50;;;3.80;99.90;;;;;;5053213;28;20296;-83
2021/01/01 02:26:16;;;;;;;41.58;25.67;;;3.80;99.90;;;;;;5053965;28;20257;-83
2021/01/01 02:28:42;;;;;;;35.90;23.10;;;3.80;99.90;;;;;;5054298;28;20210;-83
2021/01/01 02:31:09;;;;;;;35.20;22.67;;;3.90;99.90;;;;;;5053167;28;20289;-83
2021/01/01 02:33:36;;;;;;;36.55;24.13;;;4.00;99.90;;;;;;5053665;28;20297;-83
2021/01/01 02:36:02;;;;;;;29.98;19.90;;;4.00;99.90;;;;;;5054044;28;20206;-83
2021/01/01 02:38:29;;;;;;;28.15;18.38;;;4.00;99.90;;;;;;5052596;28;20289;-83
2021/01/01 02:40:56;;;;;;;22.20;17.20;;;4.10;99.90;;;;;;5055103;28;20241;-83
2021/01/01 02:43:23;;;;;;;19.25;15.40;;;4.10;99.90;;;;;;5055357;28;20217;-83
2021/01/01 02:45:50;;;;;;;23.45;14.77;;;4.10;99.90;;;;;;5061029;28;20260;-83
2021/01/01 02:48:18;;;;;;;23.73;13.82;;;4.10;99.90;;;;;;5077244;28;20190;-83
2021/01/01 02:50:45;;;;;;;24.23;17.17;;;4.20;99.90;;;;;;5078527;28;20190;-83
2021/01/01 02:53:12;;;;;;;25.25;16.77;;;4.10;99.90;;;;;;5070133;28;20264;-83
2021/01/01 02:55:38;;;;;;;22.73;16.67;;;4.10;99.90;;;;;;5054522;28;20297;-84
2021/01/01 02:58:07;;;;;;;21.33;14.20;;;4.00;99.90;;;;;;5053792;28;20653;-83
2021/01/01 03:00:35;;;;;;;30.08;16.23;;;4.00;99.90;;;;;;5056364;28;20213;-84
2021/01/01 03:03:02;;;;;;;24.80;16.67;;;4.10;99.90;;;;;;5071886;28;20285;-83
2021/01/01 03:05:28;;;;;;;24.13;16.80;;;4.00;99.90;;;;;;5053209;28;20285;-83
2021/01/01 03:07:54;;;;;;;22.55;15.70;;;4.10;99.90;;;;;;5052703;28;20592;-83
2021/01/01 03:10:21;;;;;;;30.55;18.42;;;4.10;99.90;;;;;;5053535;28;20297;-83
2021/01/01 03:12:47;;;;;;;30.13;21.77;;;4.00;99.90;;;;;;5053287;28;20768;-83
2021/01/01 03:15:16;;;;;;;35.00;24.40;;;4.00;99.90;;;;;;5052910;28;20198;-83
2021/01/01 03:17:43;;;;;;;31.23;22.17;;;4.00;99.90;;;;;;5053190;28;20645;-83
2021/01/01 03:20:11;;;;;;;35.00;24.25;;;4.10;99.90;;;;;;5052934;28;20199;-82
2021/01/01 03:22:37;;;;;;;33.83;22.38;;;4.00;99.90;;;;;;5052036;28;20285;-82
2021/01/01 03:25:05;;;;;;;33.80;24.20;;;4.00;99.90;;;;;;5053156;28;20208;-82
2021/01/01 03:27:31;;;;;;;43.15;26.10;;;4.00;99.90;;;;;;5052820;28;20234;-82
2021/01/01 03:29:57;;;;;;;42.72;28.17;;;4.00;99.90;;;;;;5053098;28;20288;-82
2021/01/01 03:32:25;;;;;;;45.92;27.15;;;3.90;99.90;;;;;;5051697;28;20205;-82
2021/01/01 03:34:52;;;;;;;42.13;28.98;;;3.90;99.90;;;;;;5053028;28;20548;-82
2021/01/01 03:37:18;;;;;;;42.08;25.08;;;3.90;99.90;;;;;;5051747;28;20212;-83
2021/01/01 03:39:44;;;;;;;51.25;29.27;;;3.90;99.90;;;;;;5052968;28;20301;-82
2021/01/01 03:42:11;;;;;;;47.35;29.88;;;3.90;99.90;;;;;;5052750;28;20251;-83
2021/01/01 03:44:38;;;;;;;50.80;31.63;;;3.90;99.90;;;;;;5052617;28;20234;-82
2021/01/01 03:47:04;;;;;;;48.40;30.10;;;3.90;99.90;;;;;;5052659;28;20242;-83
2021/01/01 03:49:32;;;;;;;53.70;29.40;;;3.80;99.90;;;;;;5052906;28;20194;-83
2021/01/01 03:51:58;;;;;;;52.70;30.77;;;3.80;99.90;;;;;;5051573;28;20202;-82
2021/01/01 03:54:25;;;;;;;50.45;31.55;;;3.80;99.90;;;;;;5052747;28;20293;-82
2021/01/01 03:56:51;;;;;;;49.55;29.83;;;3.80;99.90;;;;;;5052494;28;20293;-82
2021/01/01 03:59:17;;;;;;;48.67;28.70;;;3.80;99.90;;;;;;5052755;28;20289;-82
2021/01/01 04:01:44;;;;;;;49.50;30.17;;;3.80;99.90;;;;;;5052440;28;20213;-82
2021/01/01 04:04:10;;;;;;;48.83;28.92;;;3.70;99.90;;;;;;5051474;28;20208;-82
2021/01/01 04:06:37;;;;;;;42.33;27.77;;;3.70;99.90;;;;;;5052441;28;20896;-82
2021/01/01 04:09:04;;;;;;;48.95;29.35;;;3.70;99.90;;;;;;5051312;28;20206;-82
2021/01/01 04:11:35;;;;;;;43.63;27.67;;;3.70;99.90;;;;;;5052496;28;20284;-82
2021/01/01 04:14:01;;;;;;;45.42;26.35;;;3.70;99.90;;;;;;5052592;28;20741;-82
2021/01/01 04:16:28;;;;;;;40.17;25.55;;;3.70;99.90;;;;;;5052570;28;20208;-82
2021/01/01 04:18:54;;;;;;;46.15;26.50;;;3.80;99.90;;;;;;5052212;28;20300;-82
2021/01/01 04:21:21;;;;;;;53.25;27.15;;;3.80;99.90;;;;;;5052337;28;20676;-82
2021/01/01 04:23:48;;;;;;;49.00;25.45;;;3.70;99.90;;;;;;5051238;28;20206;-83
2021/01/01 04:26:15;;;;;;;36.28;24.05;;;3.70;99.90;;;;;;5052450;28;20269;-82
2021/01/01 04:28:41;;;;;;;40.03;25.50;;;3.70;99.90;;;;;;5055139;28;20252;-82
2021/01/01 04:31:07;;;;;;;33.53;21.77;;;3.70;99.90;;;;;;5056212;28;20198;-81
2021/01/01 04:33:34;;;;;;;33.83;22.92;;;3.70;99.90;;;;;;5055281;28;20650;-82
2021/01/01 04:36:00;;;;;;;34.42;21.10;;;3.70;99.90;;;;;;5057140;28;20214;-82
2021/01/01 04:38:26;;;;;;;30.30;22.38;;;3.70;99.90;;;;;;5054788;28;20248;-82
2021/01/01 04:40:54;;;;;;;31.50;21.13;;;3.70;99.90;;;;;;5056138;28;20926;-81
2021/01/01 04:43:20;;;;;;;32.72;18.73;;;3.70;99.90;;;;;;5056062;28;20224;-81
2021/01/01 04:45:46;;;;;;;31.00;20.45;;;3.70;99.90;;;;;;5055847;28;20348;-82
2021/01/01 04:48:13;;;;;;;30.52;18.88;;;3.70;99.90;;;;;;5055924;28;20575;-82
2021/01/01 04:50:40;;;;;;;17.92;11.85;;;3.70;99.90;;;;;;5055572;28;20653;-82
2021/01/01 04:53:10;;;;;;;26.13;14.80;;;3.70;99.90;;;;;;5054541;28;20285;-81
2021/01/01 04:55:38;;;;;;;19.60;12.20;;;3.70;99.90;;;;;;5056028;28;20202;-82
2021/01/01 04:58:05;;;;;;;20.67;12.38;;;3.70;99.90;;;;;;5056003;28;20237;-82
2021/01/01 05:00:32;;;;;;;24.38;14.00;;;3.70;99.90;;;;;;5055885;28;20222;-82
2021/01/01 05:02:59;;;;;;;23.77;12.13;;;3.70;99.90;;;;;;5054971;28;20210;-82
2021/01/01 05:05:28;;;;;;;16.70;10.95;;;3.80;99.90;;;;;;5055538;28;20244;-82
2021/01/01 05:07:54;;;;;;;14.25;10.77;;;3.80;99.90;;;;;;5054307;28;20625;-82
2021/01/01 05:10:21;;;;;;;13.88;9.10;;;3.70;99.90;;;;;;5055569;28;20285;-82
2021/01/01 05:12:48;;;;;;;15.02;9.02;;;3.70;99.90;;;;;;5055407;28;20292;-82
2021/01/01 05:15:33;;;;;;;16.90;9.65;;;3.70;99.90;;;;;;5055339;28;20654;-82
2021/01/01 05:18:00;;;;;;;13.20;8.00;;;3.70;99.90;;;;;;5055302;28;20224;-82
2021/01/01 05:20:28;;;;;;;17.17;10.10;;;3.70;99.90;;;;;;5055099;28;20293;-82
2021/01/01 05:22:58;;;;;;;11.80;8.38;;;3.70;99.90;;;;;;5054180;28;20202;-82
2021/01/01 05:25:26;;;;;;;18.48;9.88;;;3.70;99.90;;;;;;5055314;28;20206;-83
2021/01/01 05:28:00;;;;;;;13.32;9.27;;;3.70;99.90;;;;;;5054990;28;20744;-82
2021/01/01 05:30:31;;;;;;;17.25;12.30;;;3.70;99.90;;;;;;5055178;28;20228;-83
2021/01/01 05:33:00;;;;;;;15.73;10.27;;;3.70;99.90;;;;;;5055230;28;20225;-83
2021/01/01 05:35:28;;;;;;;15.77;11.40;;;3.70;99.90;;;;;;5053618;28;20213;-82
2021/01/01 05:37:54;;;;;;;16.23;10.35;;;3.70;99.90;;;;;;5053499;28;20202;-82
2021/01/01 05:40:30;;;;;;;13.35;9.98;;;3.80;99.90;;;;;;5054962;28;20289;-83
2021/01/01 05:42:57;;;;;;;14.35;9.57;;;3.70;99.90;;;;;;5055076;28;20237;-83
2021/01/01 05:45:27;;;;;;;17.60;12.60;;;3.70;99.90;;;;;;5054457;28;20899;-84
2021/01/01 05:48:06;;;;;;;19.77;11.20;;;3.70;99.90;;;;;;5054803;28;20316;-82
2021/01/01 05:50:34;;;;;;;17.67;11.18;;;3.70;99.90;;;;;;5054571;28;20280;-82
2021/01/01 05:53:16;;;;;;;17.23;12.57;;;3.70;99.90;;;;;;5053286;28;20296;-82
2021/01/01 05:55:43;;;;;;;20.67;9.90;;;3.70;99.90;;;;;;5054355;28;20635;-82
2021/01/01 05:58:22;;;;;;;19.00;11.30;;;3.70;99.90;;;;;;5054615;28;20202;-82
2021/01/01 06:00:54;;;;;;;15.05;10.77;;;3.80;99.90;;;;;;5054574;28;20213;-82
2021/01/01 06:03:27;;;;;;;16.30;10.30;;;3.70;99.90;;;;;;5054618;28;20206;-83
2021/01/01 06:05:55;;;;;;;15.23;9.93;;;3.70;99.90;;;;;;5054083;28;20210;-85
2021/01/01 06:08:26;;;;;;;15.15;10.65;;;3.70;99.90;;;;;;5053357;28;20293;-83
2021/01/01 06:10:54;;;;;;;15.45;10.93;;;3.70;99.90;;;;;;5054364;28;20253;-83
2021/01/01 06:13:22;;;;;;;25.88;15.80;;;3.70;99.90;;;;;;5054528;28;20202;-83
2021/01/01 06:15:55;;;;;;;23.63;13.05;;;3.70;99.90;;;;;;5054254;28;20551;-83
2021/01/01 06:18:26;;;;;;;32.05;19.65;;;3.80;99.90;;;;;;5054265;28;20716;-83
2021/01/01 06:20:59;;;;;;;12.70;10.20;;;3.80;99.90;;;;;;5054009;28;20251;-82
2021/01/01 06:23:35;;;;;;;15.02;8.75;;;3.90;99.90;;;;;;5052974;28;20213;-82
2021/01/01 06:26:03;;;;;;;14.50;8.73;;;4.00;99.90;;;;;;5054114;28;20289;-83
2021/01/01 06:28:31;;;;;;;18.25;9.65;;;3.90;99.90;;;;;;5053894;28;20210;-81
2021/01/01 06:30:59;;;;;;;14.55;8.30;;;3.90;99.90;;;;;;5053937;28;20210;-83
2021/01/01 06:33:26;;;;;;;14.30;8.68;;;3.80;99.90;;;;;;5052377;28;20325;-81
2021/01/01 06:35:53;;;;;;;13.45;8.43;;;3.80;99.90;;;;;;5053848;28;20214;-80
2021/01/01 06:38:38;;;;;;;11.32;7.55;;;3.70;99.90;;;;;;5051717;28;20203;-81
2021/01/01 06:41:10;;;;;;;9.15;6.25;;;3.50;99.90;;;;;;5053746;28;20207;-81
2021/01/01 06:43:53;;;;;;;9.38;6.28;;;3.50;99.90;;;;;;5053528;28;20269;-81
2021/01/01 06:46:40;;;;;;;8.60;6.63;;;3.30;99.90;;;;;;5053327;28;20238;-81
2021/01/01 06:49:29;;;;;;;7.82;5.57;;;3.30;99.90;;;;;;5049424;28;20248;-81
2021/01/01 06:52:09;;;;;;;7.53;5.70;;;3.20;99.90;;;;;;5052083;28;20293;-82
2021/01/01 06:54:56;;;;;;;10.68;5.95;;;3.30;99.90;;;;;;5053441;28;20616;-80
2021/01/01 06:57:24;;;;;;;9.85;5.80;;;3.30;99.90;;;;;;5053506;28;20232;-83
2021/01/01 06:59:51;;;;;;;6.32;5.45;;;3.30;99.90;;;;;;5053720;28;20210;-82
2021/01/01 07:02:20;;;;;;;8.02;5.28;;;3.30;99.90;;;;;;5053415;28;20198;-82
2021/01/01 07:04:48;;;;;;;10.65;6.25;;;3.40;99.90;;;;;;5052732;28;20288;-83
2021/01/01 07:07:39;;;;;;;9.52;5.25;;;3.40;99.90;;;;;;5032085;28;20234;-83
2021/01/01 07:10:07;;;;;;;6.35;4.55;;;3.40;99.90;;;;;;5033385;28;20209;-82
2021/01/01 07:12:34;;;;;;;5.07;3.70;;;3.40;99.90;;;;;;5033471;28;20290;-82
2021/01/01 07:15:00;;;;;;;5.18;3.83;;;3.30;99.90;;;;;;5033490;28;20221;-82
2021/01/01 07:17:27;;;;;;;5.15;4.35;;;3.40;99.90;;;;;;5033101;28;20303;-83
2021/01/01 07:19:54;;;;;;;8.13;6.18;;;3.40;99.90;;;;;;5033189;28;20286;-83
2021/01/01 07:22:20;;;;;;;6.53;4.07;;;3.40;99.90;;;;;;5032191;28;20290;-82
2021/01/01 07:24:46;;;;;;;7.72;4.80;;;3.30;99.90;;;;;;5033653;28;20209;-83
2021/01/01 07:27:13;;;;;;;8.00;4.72;;;3.40;99.90;;;;;;5033245;28;20326;-83
2021/01/01 07:29:39;;;;;;;6.10;3.97;;;3.40;99.90;;;;;;5032971;28;20601;-83
2021/01/01 07:32:07;;;;;;;7.60;4.50;;;3.40;99.90;;;;;;5033162;28;20260;-83
2021/01/01 07:34:36;;;;;;;7.28;5.03;;;3.40;99.90;;;;;;5042508;28;20206;-84
2021/01/01 07:37:04;;;;;;;6.13;5.53;;;3.50;99.90;;;;;;5052105;28;20213;-84
2021/01/01 07:39:30;;;;;;;5.55;4.05;;;3.40;99.90;;;;;;5053342;28;20289;-83
2021/01/01 07:42:07;;;;;;;9.05;4.20;;;3.40;99.90;;;;;;5052916;28;20238;-84
2021/01/01 07:44:33;;;;;;;5.93;3.97;;;3.50;99.90;;;;;;5052765;28;20597;-84
2021/01/01 07:46:59;;;;;;;5.80;4.40;;;3.50;99.90;;;;;;5053019;28;20287;-83
2021/01/01 07:49:35;;;;;;;6.10;4.32;;;3.40;99.90;;;;;;5052689;28;20737;-84
2021/01/01 07:52:04;;;;;;;6.50;4.35;;;3.30;99.90;;;;;;5051744;28;20226;-84
2021/01/01 07:54:30;;;;;;;5.60;4.13;;;3.40;99.90;;;;;;5053099;28;20289;-84
2021/01/01 07:57:06;;;;;;;5.68;4.03;;;3.50;99.90;;;;;;5054172;28;20285;-84
2021/01/01 07:59:33;;;;;;;10.00;4.88;;;3.60;99.90;;;;;;5054214;28;20688;-83
2021/01/01 08:02:00;;;;;;;5.85;3.83;;;3.60;99.90;;;;;;5059822;28;20202;-83
2021/01/01 08:04:29;;;;;;;7.18;4.35;;;3.50;99.90;;;;;;5079961;28;20202;-84
2021/01/01 08:06:56;;;;;;;7.10;4.38;;;3.50;99.90;;;;;;5080849;28;20289;-83
2021/01/01 08:09:23;;;;;;;9.35;4.20;;;3.50;99.90;;;;;;5077875;28;20217;-83
2021/01/01 08:11:49;;;;;;;5.68;4.72;;;3.60;99.90;;;;;;5058698;28;20281;-83
2021/01/01 08:14:20;;;;;;;6.10;4.25;;;3.50;99.90;;;;;;5058214;28;20289;-83
2021/01/01 08:16:47;;;;;;;6.80;4.15;;;3.50;99.90;;;;;;5057646;28;20210;-83
2021/01/01 08:19:22;;;;;;;5.97;4.57;;;3.50;99.90;;;;;;5056930;28;20202;-83
2021/01/01 08:21:54;;;;;;;6.13;4.85;;;3.50;99.90;;;;;;5057378;28;20206;-83
2021/01/01 08:24:23;;;;;;;6.85;5.07;;;3.50;99.90;;;;;;5057140;28;20239;-83
2021/01/01 08:26:50;;;;;;;4.90;3.35;;;3.40;99.90;;;;;;5056938;28;20324;-83
2021/01/01 08:29:17;;;;;;;4.88;3.70;;;3.70;99.90;;;;;;5057846;28;20212;-84
2021/01/01 08:31:45;;;;;;;4.80;4.30;;;3.60;99.90;;;;;;5057214;28;20297;-83
2021/01/01 08:34:12;;;;;;;5.97;3.95;;;3.70;99.90;;;;;;5043349;28;20211;-84
2021/01/01 08:36:38;;;;;;;4.43;4.00;;;3.70;99.90;;;;;;5037137;28;20765;-82
2021/01/01 08:39:07;;;;;;;5.40;4.03;;;3.90;99.90;;;;;;5035878;28;20678;-83
2021/01/01 08:41:41;;;;;;;5.57;4.15;;;3.90;99.90;;;;;;5036204;28;20203;-83
2021/01/01 08:44:09;;;;;;;4.40;3.85;;;3.80;99.90;;;;;;5036373;28;20230;-81
2021/01/01 08:46:35;;;;;;;4.78;3.83;;;3.80;99.90;;;;;;5036281;28;20280;-81
2021/01/01 08:49:15;;;;;;;5.82;5.20;;;3.90;99.90;;;;;;5035972;28;20213;-79
2021/01/01 08:51:41;;;;;;;6.25;5.35;;;3.80;99.90;;;;;;5035918;28;20296;-80
2021/01/01 08:54:08;;;;;;;10.10;8.02;;;3.90;99.90;;;;;;5035075;28;20203;-82
2021/01/01 08:56:37;;;;;;;7.00;6.30;;;3.90;99.90;;;;;;5035900;28;20234;-81
2021/01/01 08:59:10;;;;;;;5.07;4.28;;;4.00;99.90;;;;;;5036355;28;20238;-81
2021/01/01 09:01:36;;;;;;;7.47;5.75;;;3.90;99.90;;;;;;5036313;28;20306;-81
2021/01/01 09:04:03;;;;;;;6.20;4.80;;;3.90;99.90;;;;;;5046868;28;20297;-81
2021/01/01 09:06:30;;;;;;;13.82;11.15;;;3.90;99.90;;;;;;5056929;28;20309;-85
2021/01/01 09:09:05;;;;;;;5.72;4.88;;;3.80;99.90;;;;;;5054785;28;20297;-79
2021/01/01 09:11:32;;;;;;;4.95;4.35;;;3.90;99.90;;;;;;5055400;28;20695;-79
2021/01/01 09:14:00;;;;;;;4.30;3.42;;;4.10;99.90;;;;;;5054446;28;20198;-79
2021/01/01 09:16:27;;;;;;;5.28;3.72;;;4.10;99.90;;;;;;5055559;28;20206;-80
2021/01/01 09:18:53;;;;;;;6.07;3.67;;;4.10;99.90;;;;;;5055486;28;20625;-79
2021/01/01 09:21:20;;;;;;;6.47;3.97;;;4.20;99.90;;;;;;5055224;28;20202;-81
2021/01/01 09:23:52;;;;;;;9.00;5.88;;;4.20;99.90;;;;;;5054233;28;20202;-82
2021/01/01 09:26:23;;;;;;;11.38;8.43;;;4.40;99.90;;;;;;5055055;28;20565;-81
2021/01/01 09:28:59;;;;;;;5.60;4.28;;;4.40;99.90;;;;;;5055738;28;20198;-82
2021/01/01 09:31:26;;;;;;;4.28;3.10;;;4.50;99.90;;;;;;5055065;28;20216;-81
2021/01/01 09:34:00;;;;;;;4.18;3.72;;;4.50;99.90;;;;;;5054242;28;20285;-81
2021/01/01 09:36:26;;;;;;;5.07;3.83;;;4.60;99.90;;;;;;5055246;28;20210;-84
2021/01/01 09:38:53;;;;;;;3.88;3.47;;;4.70;99.90;;;;;;5055789;28;20207;-82
2021/01/01 09:41:19;;;;;;;4.50;3.80;;;4.80;99.90;;;;;;5055092;28;20207;-82
2021/01/01 09:43:48;;;;;;;3.42;3.13;;;4.70;99.90;;;;;;5055148;28;20206;-82
2021/01/01 09:46:14;;;;;;;6.20;3.78;;;4.70;99.90;;;;;;5054685;28;20601;-82
2021/01/01 09:48:42;;;;;;;4.03;3.35;;;4.60;99.90;;;;;;5055249;28;20240;-83
2021/01/01 09:51:08;;;;;;;6.07;4.13;;;4.70;99.90;;;;;;5055518;28;20289;-82
2021/01/01 09:53:34;;;;;;;5.32;3.85;;;4.60;99.90;;;;;;5053471;28;20285;-84
2021/01/01 09:56:01;;;;;;;3.30;2.97;;;4.60;99.90;;;;;;5056822;28;20646;-83
2021/01/01 09:58:27;;;;;;;3.33;3.03;;;4.70;99.90;;;;;;5057580;28;20293;-85
2021/01/01 10:00:53;;;;;;;4.10;3.10;;;5.00;99.90;;;;;;5056775;28;20285;-82
2021/01/01 10:03:20;;;;;;;4.22;3.10;;;5.10;99.90;;;;;;5058288;28;20332;-85
2021/01/01 10:05:50;;;;;;;3.85;3.45;;;4.90;99.90;;;;;;5075245;28;20674;-84
2021/01/01 10:08:17;;;;;;;3.70;3.22;;;4.80;99.90;;;;;;5073898;28;20282;-85
2021/01/01 10:10:45;;;;;;;2.72;2.53;;;4.80;99.90;;;;;;5075431;28;20265;-81
2021/01/01 10:13:11;;;;;;;4.85;4.15;;;5.00;99.90;;;;;;5074837;28;20623;-84
2021/01/01 10:15:38;;;;;;;4.35;3.65;;;5.00;99.90;;;;;;5074860;28;20737;-86
2021/01/01 10:18:05;;;;;;;6.70;5.15;;;5.30;99.90;;;;;;5075660;28;20198;-85
2021/01/01 10:20:31;;;;;;;5.25;4.75;;;5.50;99.90;;;;;;5075130;28;20284;-85
2021/01/01 10:22:59;;;;;;;4.47;3.97;;;5.30;99.90;;;;;;5074081;28;20282;-83
2021/01/01 10:25:25;;;;;;;6.55;4.95;;;5.20;99.90;;;;;;5073721;28;20233;-85
2021/01/01 10:27:52;;;;;;;5.47;4.35;;;5.20;99.90;;;;;;5076013;28;20271;-84
2021/01/01 10:30:19;;;;;;;4.78;4.32;;;5.20;99.90;;;;;;5074194;28;20293;-90
2021/01/01 10:32:45;;;;;;;13.18;10.55;;;5.30;99.90;;;;;;5076743;28;20335;-89
2021/01/01 10:35:11;;;;;;;5.03;4.05;;;5.40;99.90;;;;;;5055045;28;20210;-86
2021/01/01 10:37:38;;;;;;;4.45;3.85;;;5.30;99.90;;;;;;5053857;28;20293;-86
2021/01/01 10:40:07;;;;;;;6.72;5.40;;;5.50;99.90;;;;;;5055513;28;20289;-88
2021/01/01 10:42:33;;;;;;;5.65;4.65;;;5.70;99.90;;;;;;5059327;28;20616;-87
2021/01/01 10:45:00;;;;;;;26.75;21.25;;;5.70;99.90;;;;;;5053989;28;20323;-88
2021/01/01 10:47:26;;;;;;;4.68;4.00;;;5.80;99.90;;;;;;5054601;28;20325;-87
2021/01/01 10:49:52;;;;;;;6.43;5.63;;;5.40;99.90;;;;;;5054150;28;20249;-87
2021/01/01 10:52:19;;;;;;;9.63;6.72;;;5.50;99.90;;;;;;5053435;28;20293;-86
2021/01/01 10:54:46;;;;;;;11.68;9.15;;;5.50;99.90;;;;;;5055169;28;20206;-85
2021/01/01 10:57:13;;;;;;;5.03;4.53;;;5.50;99.90;;;;;;5054774;28;20296;-84
2021/01/01 10:59:40;;;;;;;4.47;3.47;;;5.40;99.90;;;;;;5055742;28;20289;-86
2021/01/01 11:02:06;;;;;;;9.73;6.30;;;5.20;99.90;;;;;;5057315;28;20244;-88
2021/01/01 11:04:33;;;;;;;31.83;19.38;;;5.30;99.90;;;;;;5054299;28;20258;-84
2021/01/01 11:06:59;;;;;;;5.28;3.85;;;5.10;99.90;;;;;;5052589;28;20318;-84
2021/01/01 11:09:26;;;;;;;7.80;6.65;;;4.80;99.90;;;;;;5053856;28;20238;-85
2021/01/01 11:11:55;;;;;;;4.72;4.10;;;5.00;99.90;;;;;;5058330;28;20210;-85
2021/01/01 11:14:27;;;;;;;5.18;4.63;;;5.00;99.90;;;;;;5054558;28;20213;-85
2021/01/01 12:23:10;;;;;;;6.32;4.85;;;5.40;99.90;;;;;;5060493;28;20194;-86
2021/01/01 12:25:37;;;;;;;5.85;4.28;;;5.40;99.90;;;;;;5055729;28;20576;-86
2021/01/01 12:28:05;;;;;;;7.53;4.82;;;5.50;99.90;;;;;;5058366;28;20328;-86
2021/01/01 12:30:33;;;;;;;5.22;4.13;;;5.30;99.90;;;;;;5051637;28;20213;-85
2021/01/01 12:33:02;;;;;;;8.57;7.25;;;5.30;99.90;;;;;;5041040;28;20200;-86
2021/01/01 12:35:31;;;;;;;7.60;5.47;;;5.70;99.90;;;;;;5040897;28;20207;-84
2021/01/01 12:38:01;;;;;;;7.90;5.70;;;5.50;99.90;;;;;;5040043;28;20199;-88
2021/01/01 12:40:28;;;;;;;23.63;14.40;;;5.40;99.90;;;;;;5041102;28;20552;-86
2021/01/01 12:42:55;;;;;;;7.03;4.75;;;5.40;99.90;;;;;;5041162;28;20199;-86
2021/01/01 12:45:22;;;;;;;4.85;4.00;;;5.50;99.90;;;;;;5040470;28;20397;-86
2021/01/01 12:47:48;;;;;;;8.93;6.20;;;5.70;99.90;;;;;;5043791;28;20329;-85
2021/01/01 12:50:16;;;;;;;7.68;4.85;;;5.50;99.90;;;;;;5049145;28;20198;-85
2021/01/01 12:52:52;;;;;;;6.70;5.07;;;5.60;99.90;;;;;;5058620;28;20533;-84
2021/01/01 12:55:18;;;;;;;6.05;4.60;;;5.70;99.90;;;;;;5063138;28;20497;-86
2021/01/01 12:57:45;;;;;;;5.28;4.28;;;5.80;99.90;;;;;;5062460;28;20298;-86
2021/01/01 13:00:12;;;;;;;6.25;5.05;;;5.70;99.90;;;;;;5060857;28;20648;-87
2021/01/01 13:02:38;;;;;;;6.10;4.63;;;5.60;99.90;;;;;;5063245;28;20210;-85
2021/01/01 13:05:06;;;;;;;6.75;5.22;;;5.30;99.90;;;;;;5063495;28;20641;-84
2021/01/01 13:07:33;;;;;;;7.05;5.60;;;5.20;99.90;;;;;;5062708;28;20317;-83
2021/01/01 13:10:00;;;;;;;6.45;5.07;;;5.30;99.90;;;;;;5070105;28;20270;-84
2021/01/01 13:12:26;;;;;;;7.18;4.97;;;5.30;99.90;;;;;;5071587;28;20578;-85
2021/01/01 13:14:53;;;;;;;6.78;4.95;;;5.30;99.90;;;;;;5075145;28;20220;-84
2021/01/01 13:17:19;;;;;;;8.77;6.50;;;5.30;99.90;;;;;;5065361;28;20702;-85
2021/01/01 13:19:47;;;;;;;8.93;6.32;;;5.10;99.90;;;;;;5060084;28;20230;-84
2021/01/01 13:22:13;;;;;;;7.22;5.15;;;5.10;99.90;;;;;;5058882;28;20230;-84
2021/01/01 13:24:40;;;;;;;7.82;5.15;;;5.10;99.90;;;;;;5059581;28;20242;-87
2021/01/01 13:27:07;;;;;;;7.90;5.32;;;5.00;99.90;;;;;;5058410;28;20317;-86
2021/01/01 13:29:34;;;;;;;7.32;5.68;;;5.20;99.90;;;;;;5056070;28;20209;-84
2021/01/01 13:32:01;;;;;;;8.48;5.90;;;4.80;99.90;;;;;;5057520;28;20198;-85
2021/01/01 13:34:28;;;;;;;8.50;6.07;;;5.00;99.90;;;;;;5066690;28;20214;-84
2021/01/01 13:36:55;;;;;;;12.43;6.00;;;5.00;99.90;;;;;;5074957;28;20300;-85
2021/01/01 13:39:21;;;;;;;8.82;5.60;;;5.10;99.90;;;;;;5076946;28;20201;-85
2021/01/01 13:41:48;;;;;;;8.60;6.28;;;5.10;99.90;;;;;;5076996;28;20285;-85
2021/01/01 13:44:15;;;;;;;8.25;6.55;;;5.30;99.90;;;;;;5077146;28;20343;-83
2021/01/01 13:46:41;;;;;;;8.70;5.85;;;5.30;99.90;;;;;;5077689;28;20288;-86
2021/01/01 13:49:08;;;;;;;8.82;6.00;;;5.30;99.90;;;;;;5078323;28;20296;-86
2021/01/01 13:51:36;;;;;;;9.68;6.88;;;5.30;99.90;;;;;;5077449;28;20269;-83
2021/01/01 13:54:03;;;;;;;9.30;6.97;;;5.30;99.90;;;;;;5076047;28;20740;-84
2021/01/01 13:56:30;;;;;;;11.77;6.35;;;5.30;99.90;;;;;;5076075;28;20284;-85